createdAt,value
2022-08-03T00:00:31.716Z,100361.03
2022-08-03T00:02:59.812Z,100348.75
2022-08-03T00:05:27.529Z,100355.16
2022-08-03T00:07:55.479Z,100354.34
2022-08-03T00:10:23.967Z,100355.34
2022-08-03T00:12:51.606Z,100356.59
2022-08-03T00:15:19.298Z,100354.78
2022-08-03T00:17:52.845Z,100351.25
2022-08-03T00:23:10.064Z,100349.44
2022-08-03T00:25:38.237Z,100357.91
2022-08-03T00:28:06.256Z,100356.97
2022-08-03T00:30:37.059Z,100360.94
2022-08-03T00:33:04.741Z,100356.69
2022-08-03T00:35:50.072Z,100355.91
2022-08-03T00:38:19.682Z,100358.38
2022-08-03T00:40:47.561Z,100359.25
2022-08-03T00:43:15.219Z,100364.19
2022-08-03T00:45:44.214Z,100355.09
2022-08-03T00:48:29.458Z,100358.66
2022-08-03T00:51:00.668Z,100356.34
2022-08-03T00:53:28.318Z,100356.16
2022-08-03T00:55:56.040Z,100357.62
2022-08-03T00:58:24.808Z,100346.91
2022-08-03T01:00:52.550Z,100355.37
2022-08-03T01:03:20.269Z,100347.19
2022-08-03T01:06:03.297Z,100351.31
2022-08-03T01:08:48.913Z,100345.47
2022-08-03T01:11:20.009Z,100347.19
2022-08-03T01:14:04.476Z,100349.19
2022-08-03T01:16:57.381Z,100352.22
2022-08-03T01:19:24.968Z,100347.78
2022-08-03T01:21:55.858Z,100343.78
2022-08-03T01:24:52.191Z,100350.25
2022-08-03T01:27:23.647Z,100355.09
2022-08-03T01:29:56.445Z,100350.53
2022-08-03T01:32:58.533Z,100343.56
2022-08-03T01:35:29.917Z,100346.81
2022-08-03T01:38:03.369Z,100345.19
2022-08-03T01:40:32.677Z,100345.59
2022-08-03T01:43:02.572Z,100347.56
2022-08-03T01:45:34.090Z,100347.97
2022-08-03T01:48:03.043Z,100339.16
2022-08-03T01:50:32.033Z,100341.28
2022-08-03T01:53:00.358Z,100349.88
2022-08-03T01:55:30.045Z,100348.87
2022-08-03T01:58:06.177Z,100341.06
2022-08-03T02:00:38.234Z,100357.75
2022-08-03T02:03:07.317Z,100352.94
2022-08-03T02:05:35.428Z,100362.06
2022-08-03T02:08:04.831Z,100355.59
2022-08-03T02:10:34.590Z,100362.75
2022-08-03T02:13:04.553Z,100367.97
2022-08-03T02:15:36.318Z,100363.78
2022-08-03T02:18:06.471Z,100358.13
2022-08-03T02:20:36.721Z,100366.13
2022-08-03T02:23:06.923Z,100360.69
2022-08-03T02:25:39.205Z,100367.56
2022-08-03T02:28:10.929Z,100360.38
2022-08-03T02:30:39.675Z,100361.50
2022-08-03T02:33:11.392Z,100356.84
2022-08-03T02:35:40.379Z,100365.16
2022-08-03T02:38:10.638Z,100362.13
2022-08-03T02:40:39.268Z,100367.53
2022-08-03T02:43:09.622Z,100365.50
2022-08-03T02:45:45.542Z,100366.41
2022-08-03T02:48:16.755Z,100373.91
2022-08-03T02:50:45.483Z,100367.59
2022-08-03T02:53:14.028Z,100362.56
2022-08-03T02:55:43.263Z,100364.38
2022-08-03T02:58:15.031Z,100361.63
2022-08-03T03:00:44.535Z,100363.97
2022-08-03T03:03:12.991Z,100367.69
2022-08-03T03:05:52.135Z,100364.03
2022-08-03T03:08:26.027Z,100370.38
2022-08-03T03:10:56.419Z,100370.47
2022-08-03T03:13:24.560Z,100365.75
2022-08-03T03:15:53.046Z,100372.06
2022-08-03T03:18:22.862Z,100364.59
2022-08-03T03:20:53.226Z,100367.34
2022-08-03T03:23:25.418Z,100369.81
2022-08-03T03:25:53.621Z,100374.72
2022-08-03T03:28:22.087Z,100368.38
2022-08-03T03:30:52.624Z,100372.97
2022-08-03T03:33:22.241Z,100372.22
2022-08-03T03:35:50.511Z,100369.84
2022-08-03T03:38:18.613Z,100370.16
2022-08-03T03:40:46.901Z,100371.63
2022-08-03T03:43:14.780Z,100369.47
2022-08-03T03:48:28.707Z,100378.63
2022-08-03T03:50:57.646Z,100382.44
2022-08-03T03:53:25.540Z,100381.41
2022-08-03T03:56:01.181Z,100377.38
2022-08-03T03:58:31.548Z,100376.69
2022-08-03T04:00:59.929Z,100381.91
2022-08-03T04:03:28.342Z,100380.28
2022-08-03T04:06:14.757Z,100381.66
2022-08-03T04:09:01.641Z,100387.50
2022-08-03T04:11:33.549Z,100378.19
2022-08-03T04:14:06.476Z,100387.75
2022-08-03T04:16:35.673Z,100381.56
2022-08-03T04:19:08.564Z,100392.87
2022-08-03T04:21:38.544Z,100401.56
2022-08-03T04:24:09.384Z,100400.06
2022-08-03T04:26:39.884Z,100393.06
2022-08-03T04:29:09.794Z,100393.63
2022-08-03T04:31:38.828Z,100388.88
2022-08-03T04:34:06.668Z,100393.50
2022-08-03T04:36:37.807Z,100388.56
2022-08-03T04:39:08.920Z,100396.59
2022-08-03T04:42:07.329Z,100388.34
2022-08-03T04:44:28.352Z,100398.47
2022-08-03T04:46:57.426Z,100396.81
2022-08-03T04:49:25.958Z,100399.47
2022-08-03T04:51:53.644Z,100398.06
2022-08-03T04:54:21.704Z,100399.75
2022-08-03T04:56:49.314Z,100404.13
2022-08-03T04:59:18.159Z,100400.16
2022-08-03T05:01:46.279Z,100396.13
2022-08-03T05:04:14.104Z,100402.34
2022-08-03T05:06:48.028Z,100399.44
2022-08-03T05:09:50.783Z,100399.50
2022-08-03T05:12:07.170Z,100401.19
2022-08-03T05:14:38.082Z,100389.72
2022-08-03T05:17:06.192Z,100392.19
2022-08-03T05:19:33.896Z,100384.28
2022-08-03T05:22:02.043Z,100396.03
2022-08-03T05:24:29.752Z,100389.03
2022-08-03T05:26:57.415Z,100392.03
2022-08-03T05:29:25.426Z,100388.81
2022-08-03T05:31:53.049Z,100383.91
2022-08-03T05:34:20.698Z,100397.50
2022-08-03T05:36:48.793Z,100396.22
2022-08-03T05:39:16.552Z,100400.25
2022-08-03T05:41:44.292Z,100397.59
2022-08-03T05:44:12.421Z,100400.13
2022-08-03T05:46:40.035Z,100392.66
2022-08-03T05:49:07.791Z,100395.19
2022-08-03T05:51:35.932Z,100388.44
2022-08-03T05:54:03.789Z,100393.88
2022-08-03T05:56:31.512Z,100385.13
2022-08-03T05:59:07.360Z,100390.97
2022-08-03T06:01:47.330Z,100387.97
2022-08-03T06:04:15.585Z,100392.47
2022-08-03T06:06:43.893Z,100386.63
2022-08-03T06:09:11.521Z,100390.16
2022-08-03T06:11:40.630Z,100391.75
2022-08-03T06:14:08.418Z,100383.37
2022-08-03T06:16:36.278Z,100385.59
2022-08-03T06:19:04.316Z,100378.75
2022-08-03T06:21:32.216Z,100380.47
2022-08-03T06:23:59.924Z,100377.38
2022-08-03T06:26:30.765Z,100374.09
2022-08-03T06:28:58.553Z,100381.47
2022-08-03T06:31:32.680Z,100372.44
2022-08-03T06:34:30.360Z,100379.03
2022-08-03T06:36:52.271Z,100382.84
2022-08-03T06:39:23.408Z,100383.16
2022-08-03T06:41:52.174Z,100389.72
2022-08-03T06:44:20.434Z,100393.00
2022-08-03T06:46:48.255Z,100379.63
2022-08-03T06:49:16.120Z,100382.53
2022-08-03T06:52:04.060Z,100376.75
2022-08-03T06:54:33.245Z,100381.88
2022-08-03T06:57:01.650Z,100379.56
2022-08-03T07:00:08.274Z,100375.47
2022-08-03T07:02:19.951Z,100378.41
2022-08-03T07:04:48.482Z,100375.00
2022-08-03T07:07:16.125Z,100378.12
2022-08-03T07:09:57.798Z,100376.44
2022-08-03T07:12:29.784Z,100378.97
2022-08-03T07:15:01.153Z,100371.97
2022-08-03T07:17:35.924Z,100378.91
2022-08-03T07:20:05.712Z,100387.34
2022-08-03T07:22:33.903Z,100374.62
2022-08-03T07:25:01.746Z,100376.78
2022-08-03T07:27:30.959Z,100378.00
2022-08-03T07:32:49.831Z,100384.06
2022-08-03T07:35:25.320Z,100387.13
2022-08-03T07:37:55.059Z,100373.84
2022-08-03T07:40:23.195Z,100377.62
2022-08-03T07:42:55.094Z,100384.56
2022-08-03T07:45:24.043Z,100385.25
2022-08-03T07:47:53.897Z,100386.00
2022-08-03T07:50:22.670Z,100385.69
2022-08-03T07:52:51.985Z,100386.00
2022-08-03T07:55:21.328Z,100381.78
2022-08-03T07:58:00.037Z,100389.53
2022-08-03T08:00:27.829Z,100390.75
2022-08-03T08:02:55.881Z,100383.25
2022-08-03T08:05:23.599Z,100390.06
2022-08-03T08:07:51.890Z,100388.44
2022-08-03T08:10:20.198Z,100381.97
2022-08-03T08:12:48.604Z,100377.53
2022-08-03T08:15:16.472Z,100390.38
2022-08-03T08:17:54.906Z,100388.75
2022-08-03T08:20:30.481Z,100391.16
2022-08-03T08:23:01.391Z,100388.19
2022-08-03T08:25:30.561Z,100391.12
2022-08-03T08:28:29.785Z,100387.38
2022-08-03T08:30:46.689Z,100388.12
2022-08-03T08:33:22.426Z,100390.31
2022-08-03T08:35:53.492Z,100390.38
2022-08-03T08:38:21.539Z,100383.69
2022-08-03T08:40:49.984Z,100390.75
2022-08-03T08:43:17.977Z,100389.00
2022-08-03T08:45:46.314Z,100406.41
2022-08-03T08:48:14.990Z,100400.06
2022-08-03T08:50:43.534Z,100397.47
2022-08-03T08:53:18.189Z,100397.63
2022-08-03T08:55:58.248Z,100393.28
2022-08-03T08:58:35.261Z,100392.72
2022-08-03T09:01:04.467Z,100394.47
2022-08-03T09:03:33.676Z,100399.16
2022-08-03T09:06:05.738Z,100405.38
2022-08-03T09:08:33.995Z,100400.16
2022-08-03T09:11:01.689Z,100398.75
2022-08-03T09:13:30.766Z,100404.78
2022-08-03T09:16:14.225Z,100410.91
2022-08-03T09:18:43.299Z,100400.19
2022-08-03T09:21:31.762Z,100402.19
2022-08-03T09:24:03.794Z,100403.44
2022-08-03T09:26:34.593Z,100403.16
2022-08-03T09:29:11.180Z,100399.72
2022-08-03T09:31:46.482Z,100404.53
2022-08-03T09:34:17.978Z,100407.41
2022-08-03T09:36:50.999Z,100399.50
2022-08-03T09:39:41.678Z,100410.59
2022-08-03T09:42:27.865Z,100402.69
2022-08-03T09:44:55.529Z,100407.09
2022-08-03T09:47:30.846Z,100407.34
2022-08-03T09:50:06.019Z,100408.16
2022-08-03T09:52:39.502Z,100409.69
2022-08-03T09:56:33.494Z,100401.19
2022-08-03T10:00:56.456Z,100406.16
2022-08-03T10:03:25.426Z,100398.25
2022-08-03T10:05:59.054Z,100391.88
2022-08-03T10:08:27.820Z,100412.53
2022-08-03T10:10:55.598Z,100398.25
2022-08-03T10:13:41.983Z,100400.16
2022-08-03T10:16:23.954Z,100395.72
2022-08-03T10:18:52.795Z,100398.81
2022-08-03T10:21:21.432Z,100410.16
2022-08-03T10:23:50.333Z,100408.91
2022-08-03T10:26:19.558Z,100423.25
2022-08-03T10:28:49.863Z,100414.50
2022-08-03T10:31:18.827Z,100407.56
2022-08-03T10:33:52.817Z,100406.16
2022-08-03T10:36:24.900Z,100404.47
2022-08-03T10:38:53.942Z,100411.84
2022-08-03T10:41:22.732Z,100419.03
2022-08-03T10:44:03.397Z,100423.19
2022-08-03T10:46:33.620Z,100411.59
2022-08-03T10:49:01.497Z,100408.09
2022-08-03T10:51:32.444Z,100414.31
2022-08-03T10:54:01.697Z,100410.53
2022-08-03T10:56:51.490Z,100424.44
2022-08-03T10:59:27.976Z,100419.34
2022-08-03T11:02:00.270Z,100431.66
2022-08-03T11:04:30.516Z,100417.69
2022-08-03T11:07:19.915Z,100418.69
2022-08-03T11:09:52.450Z,100418.22
2022-08-03T11:12:29.851Z,100420.41
2022-08-03T11:15:05.490Z,100424.97
2022-08-03T11:17:46.646Z,100429.81
2022-08-03T11:20:41.137Z,100407.47
2022-08-03T11:23:08.886Z,100409.75
2022-08-03T11:25:55.718Z,100413.66
2022-08-03T11:28:28.230Z,100418.38
2022-08-03T11:30:56.323Z,100429.69
2022-08-03T11:33:33.604Z,100425.75
2022-08-03T11:36:02.848Z,100428.75
2022-08-03T11:38:30.598Z,100417.53
2022-08-03T11:40:58.418Z,100421.09
2022-08-03T11:43:31.373Z,100416.59
2022-08-03T11:46:00.685Z,100407.09
2022-08-03T11:48:39.119Z,100413.53
2022-08-03T11:51:19.085Z,100410.44
2022-08-03T11:53:49.902Z,100418.06
2022-08-03T11:56:17.586Z,100417.38
2022-08-03T11:59:01.745Z,100421.41
2022-08-03T12:01:37.923Z,100415.69
2022-08-03T12:04:06.616Z,100417.59
2022-08-03T12:06:57.445Z,100413.50
2022-08-03T12:09:25.544Z,100411.31
2022-08-03T12:11:59.616Z,100402.19
2022-08-03T12:14:48.890Z,100407.53
2022-08-03T12:17:19.613Z,100397.41
2022-08-03T12:19:47.931Z,100407.47
2022-08-03T12:22:17.211Z,100408.78
2022-08-03T12:24:47.255Z,100406.59
2022-08-03T12:27:25.819Z,100411.78
2022-08-03T12:32:40.219Z,100409.56
2022-08-03T12:37:53.466Z,100397.66
2022-08-03T12:40:28.452Z,100395.44
2022-08-03T12:42:56.811Z,100386.72
2022-08-03T12:45:25.756Z,100393.13
2022-08-03T12:48:00.555Z,100394.22
2022-08-03T12:50:31.396Z,100392.19
2022-08-03T12:53:00.438Z,100396.84
2022-08-03T12:55:56.621Z,100392.44
2022-08-03T12:58:35.763Z,100390.88
2022-08-03T13:01:09.538Z,100390.44
2022-08-03T13:03:43.375Z,100400.19
2022-08-03T13:06:15.140Z,100404.13
2022-08-03T13:08:43.552Z,100405.56
2022-08-03T13:11:23.706Z,100409.47
2022-08-03T13:14:13.438Z,100404.69
2022-08-03T13:16:44.601Z,100403.09
2022-08-03T13:19:15.847Z,100404.47
2022-08-03T13:21:53.813Z,100408.44
2022-08-03T13:24:33.927Z,100412.63
2022-08-03T13:28:10.993Z,100399.31
2022-08-03T13:29:51.321Z,100403.06
2022-08-03T13:32:19.475Z,100397.13
2022-08-03T13:34:49.691Z,100397.66
2022-08-03T13:40:04.733Z,100408.78
2022-08-03T13:42:34.408Z,100400.22
2022-08-03T13:45:02.757Z,100404.78
2022-08-03T13:47:32.312Z,100404.44
2022-08-03T13:50:02.942Z,100407.53
2022-08-03T13:52:44.496Z,100405.41
2022-08-03T13:55:12.866Z,100407.75
2022-08-03T13:58:03.080Z,100400.22
2022-08-03T14:00:34.992Z,100396.56
2022-08-03T14:03:10.813Z,100394.47
2022-08-03T14:05:40.578Z,100393.37
2022-08-03T14:08:09.038Z,100381.50
2022-08-03T14:10:38.559Z,100386.50
2022-08-03T14:13:06.243Z,100385.94
2022-08-03T14:15:37.924Z,100387.75
2022-08-03T14:18:07.022Z,100389.44
2022-08-03T14:20:38.581Z,100383.94
2022-08-03T14:23:15.431Z,100385.84
2022-08-03T14:25:51.555Z,100392.06
2022-08-03T14:28:21.619Z,100383.31
2022-08-03T14:30:50.161Z,100383.50
2022-08-03T14:33:18.186Z,100383.75
2022-08-03T14:35:45.895Z,100385.59
2022-08-03T14:38:14.096Z,100383.69
2022-08-03T14:40:42.035Z,100391.88
2022-08-03T14:43:09.792Z,100392.25
2022-08-03T14:45:38.604Z,100389.87
2022-08-03T14:50:32.769Z,100388.56
2022-08-03T14:50:57.107Z,100390.84
2022-08-03T14:53:24.840Z,100391.38
2022-08-03T14:55:53.731Z,100385.28
2022-08-03T14:58:28.587Z,100388.75
2022-08-03T15:00:56.793Z,100384.94
2022-08-03T15:03:25.309Z,100389.72
2022-08-03T15:05:53.726Z,100404.81
2022-08-03T15:08:22.431Z,100402.78
2022-08-03T15:10:50.886Z,100402.50
2022-08-03T15:13:19.806Z,100401.44
2022-08-03T15:15:48.332Z,100405.63
2022-08-03T15:18:16.339Z,100405.88
2022-08-03T15:20:45.965Z,100406.81
2022-08-03T15:23:14.945Z,100414.97
2022-08-03T15:26:28.792Z,100410.59
2022-08-03T15:28:32.285Z,100423.16
2022-08-03T15:31:00.750Z,100414.91
2022-08-03T15:33:28.790Z,100422.25
2022-08-03T15:35:57.098Z,100421.34
2022-08-03T15:38:25.944Z,100415.78
2022-08-03T15:40:54.954Z,100418.38
2022-08-03T15:43:25.532Z,100426.91
2022-08-03T15:48:41.740Z,100431.72
2022-08-03T15:51:09.993Z,100431.34
2022-08-03T15:53:39.417Z,100435.56
2022-08-03T15:56:14.249Z,100432.22
2022-08-03T15:58:59.573Z,100440.59
2022-08-03T16:01:33.182Z,100429.69
2022-08-03T16:04:01.296Z,100431.97
2022-08-03T16:06:35.321Z,100440.31
2022-08-03T16:09:05.676Z,100434.91
2022-08-03T16:11:51.043Z,100440.09
2022-08-03T16:14:34.651Z,100435.00
2022-08-03T16:17:05.766Z,100438.75
2022-08-03T16:19:33.808Z,100428.34
2022-08-03T16:22:03.333Z,100440.72
2022-08-03T16:24:31.163Z,100438.84
2022-08-03T16:27:00.462Z,100441.72
2022-08-03T16:29:28.967Z,100436.63
2022-08-03T16:31:56.731Z,100429.41
2022-08-03T16:34:43.405Z,100431.38
2022-08-03T16:37:36.613Z,100439.94
2022-08-03T16:39:59.211Z,100435.56
2022-08-03T16:42:26.820Z,100435.69
2022-08-03T16:44:54.557Z,100428.78
2022-08-03T16:47:23.022Z,100434.09
2022-08-03T16:49:54.715Z,100439.53
2022-08-03T16:52:25.187Z,100456.22
2022-08-03T16:54:54.063Z,100445.31
2022-08-03T16:57:58.321Z,100449.59
2022-08-03T17:00:11.850Z,100457.50
2022-08-03T17:02:48.112Z,100461.84
2022-08-03T17:05:16.564Z,100463.78
2022-08-03T17:07:46.832Z,100463.87
2022-08-03T17:13:03.790Z,100471.88
2022-08-03T17:15:38.384Z,100472.25
2022-08-03T17:18:24.379Z,100479.50
2022-08-03T17:20:55.406Z,100487.97
2022-08-03T17:23:35.248Z,100489.03
2022-08-03T17:26:09.776Z,100488.41
2022-08-03T17:28:50.093Z,100495.03
2022-08-03T17:31:31.302Z,100497.09
2022-08-03T17:34:04.213Z,100493.78
2022-08-03T17:37:02.049Z,100497.66
2022-08-03T17:39:41.751Z,100502.09
2022-08-03T17:42:38.848Z,100501.31
2022-08-03T17:44:58.224Z,100505.22
2022-08-03T17:47:42.088Z,100506.50
2022-08-03T17:50:24.806Z,100506.91
2022-08-03T17:53:00.883Z,100519.59
2022-08-03T17:55:56.942Z,100518.53
2022-08-03T17:58:25.323Z,100524.09
2022-08-03T18:02:00.442Z,100523.97
2022-08-03T18:04:11.198Z,100532.97
2022-08-03T18:06:55.716Z,100528.06
2022-08-03T18:10:06.363Z,100527.34
2022-08-03T18:12:26.139Z,100532.28
2022-08-03T18:15:01.226Z,100532.72
2022-08-03T18:17:55.805Z,100538.28
2022-08-03T18:20:33.172Z,100542.63
2022-08-03T18:23:09.868Z,100544.91
2022-08-03T18:25:49.101Z,100546.22
2022-08-03T18:28:38.804Z,100555.03
2022-08-03T18:31:09.428Z,100555.81
2022-08-03T18:34:19.158Z,100556.69
2022-08-03T18:36:30.082Z,100564.97
2022-08-03T18:39:02.580Z,100565.66
2022-08-03T18:41:35.423Z,100567.56
2022-08-03T18:47:15.915Z,100569.53
2022-08-03T18:49:50.489Z,100574.28
2022-08-03T18:52:27.623Z,100582.38
2022-08-03T18:55:07.320Z,100578.00
2022-08-03T18:57:49.269Z,100586.03
2022-08-03T19:00:24.958Z,100584.38
2022-08-03T19:03:20.583Z,100584.09
2022-08-03T19:06:03.040Z,100591.25
2022-08-03T19:08:56.050Z,100588.12
2022-08-03T19:11:27.888Z,100583.16
2022-08-03T19:13:57.225Z,100579.19
2022-08-03T19:16:31.084Z,100588.72
2022-08-03T19:19:01.731Z,100595.09
2022-08-03T19:21:30.701Z,100586.69
2022-08-03T19:24:06.590Z,100592.38
2022-08-03T19:26:39.746Z,100587.62
2022-08-03T19:29:14.910Z,100590.78
2022-08-03T19:31:59.136Z,100584.44
2022-08-03T19:34:29.016Z,100586.97
2022-08-03T19:36:58.997Z,100580.13
2022-08-03T19:39:26.972Z,100588.75
2022-08-03T19:41:58.739Z,100599.19
2022-08-03T19:44:38.110Z,100591.34
2022-08-03T19:47:17.040Z,100593.91
2022-08-03T19:50:06.045Z,100588.56
2022-08-03T19:52:35.867Z,100589.81
2022-08-03T19:55:12.180Z,100585.59
2022-08-03T19:57:43.249Z,100585.47
2022-08-03T20:00:13.909Z,100588.50
2022-08-03T20:02:43.007Z,100594.91
2022-08-03T20:05:15.356Z,100595.59
2022-08-03T20:07:48.198Z,100588.91
2022-08-03T20:10:17.030Z,100592.72
2022-08-03T20:12:46.362Z,100586.53
2022-08-03T20:15:18.391Z,100593.28
2022-08-03T20:17:59.816Z,100592.22
2022-08-03T20:20:32.937Z,100601.19
2022-08-03T20:23:03.497Z,100595.88
2022-08-03T20:28:26.777Z,100600.94
2022-08-03T20:30:54.768Z,100605.59
2022-08-03T20:33:27.639Z,100608.91
2022-08-03T20:35:56.105Z,100614.09
2022-08-03T20:39:07.935Z,100608.50
2022-08-03T20:41:37.268Z,100608.50
2022-08-03T20:44:06.466Z,100618.25
2022-08-03T20:46:50.218Z,100613.41
2022-08-03T20:49:23.231Z,100615.41
2022-08-03T20:51:53.211Z,100612.75
2022-08-03T20:54:30.533Z,100616.91
2022-08-03T20:57:04.152Z,100617.44
2022-08-03T21:02:30.112Z,100616.47
2022-08-03T21:05:03.654Z,100621.47
2022-08-03T21:08:04.952Z,100617.97
2022-08-03T21:10:37.893Z,100621.97
2022-08-03T21:13:04.792Z,100569.00
2022-08-03T21:13:07.829Z,100619.28
2022-08-03T21:13:25.211Z,100621.13
2022-08-03T21:16:12.361Z,100624.63
2022-08-03T21:18:52.269Z,100621.78
2022-08-03T21:21:21.573Z,100632.47
2022-08-03T21:23:51.482Z,100629.47
2022-08-03T21:26:20.245Z,100631.47
2022-08-03T21:28:49.115Z,100624.94
2022-08-03T21:31:25.763Z,100625.00
2022-08-03T21:33:55.941Z,100631.72
2022-08-03T21:36:24.906Z,100632.06
2022-08-03T21:38:56.469Z,100634.91
2022-08-03T21:41:26.842Z,100635.38
2022-08-03T21:43:54.598Z,100629.19
2022-08-03T21:46:23.323Z,100631.16
2022-08-03T21:48:54.721Z,100622.25
2022-08-03T21:51:25.168Z,100631.22
2022-08-03T21:54:03.870Z,100630.53
2022-08-03T21:56:36.610Z,100628.09
2022-08-03T22:01:55.355Z,100629.03
2022-08-03T22:04:53.231Z,100627.44
2022-08-03T22:07:14.731Z,100638.75
2022-08-03T22:09:51.045Z,100640.84
2022-08-03T22:12:21.717Z,100642.09
2022-08-03T22:14:50.445Z,100639.12
2022-08-03T22:17:55.060Z,100646.13
2022-08-03T22:20:17.161Z,100644.00
2022-08-03T22:22:55.744Z,100646.75
2022-08-03T22:25:27.861Z,100640.41
2022-08-03T22:27:55.635Z,100645.50
2022-08-03T22:30:23.328Z,100645.34
2022-08-03T22:32:53.830Z,100641.34
2022-08-03T22:35:21.939Z,100648.59
2022-08-03T22:37:52.632Z,100648.81
2022-08-03T22:40:20.973Z,100655.94
2022-08-03T22:42:52.128Z,100650.34
2022-08-03T22:46:06.817Z,100651.94
2022-08-03T22:48:08.815Z,100656.16
2022-08-03T22:50:37.522Z,100653.91
2022-08-03T22:53:07.045Z,100646.50
2022-08-03T22:55:34.806Z,100651.00
2022-08-03T22:58:02.922Z,100646.13
2022-08-03T23:00:30.594Z,100651.13
2022-08-03T23:03:00.713Z,100649.19
2022-08-03T23:08:15.569Z,100657.25
2022-08-03T23:10:47.334Z,100657.81
2022-08-03T23:13:17.031Z,100655.16
2022-08-03T23:15:51.619Z,100663.63
2022-08-03T23:18:20.937Z,100663.81
2022-08-03T23:20:52.937Z,100659.62
2022-08-03T23:23:20.852Z,100662.28
2022-08-03T23:25:50.128Z,100662.69
2022-08-03T23:28:24.992Z,100665.75
2022-08-03T23:31:07.585Z,100672.19
2022-08-03T23:33:40.628Z,100671.91
2022-08-03T23:36:31.113Z,100675.25
2022-08-03T23:39:03.098Z,100670.06
2022-08-03T23:41:32.869Z,100674.16
2022-08-03T23:44:05.347Z,100675.81
2022-08-03T23:46:36.943Z,100680.00
2022-08-03T23:49:05.795Z,100669.81
2022-08-03T23:52:03.827Z,100675.28
2022-08-03T23:54:32.903Z,100678.31
2022-08-03T23:57:09.305Z,100684.47
2022-08-03T23:59:38.188Z,100685.88
